Time;durP1;ratioP1;P1;durP2;ratioP2;P2;SDS_P1;SDS_P2;PMS_P1;PMS_P2;Temp;Humidity;BMP_temperature;BMP_pressure;BME280_temperature;BME280_humidity;BME280_pressure;Samples;Min_cycle;Max_cycle;Signal;HPM_P1;HPM_P2
2021/07/31 00:00:27;;;;;;;9.83;7.05;;;;;;;14.93;70.53;99036.40;257281;1103;115813;-66
2021/07/31 00:05:50;;;;;;;7.43;6.68;;;;;;;14.87;69.93;99040.19;255484;1103;115293;-67
2021/07/31 00:10:55;;;;;;;10.53;7.15;;;;;;;14.82;70.08;99046.39;257273;1104;115329;-66
2021/07/31 00:15:59;;;;;;;14.80;8.40;;;;;;;14.88;70.31;99045.28;254228;1103;116221;-64
2021/07/31 00:21:03;;;;;;;17.50;8.08;;;;;;;14.89;70.19;99046.09;255440;1104;116190;-67
2021/07/31 00:26:06;;;;;;;13.15;8.10;;;;;;;14.82;70.62;99031.09;254933;1103;115993;-66
2021/07/31 00:31:10;;;;;;;12.63;8.50;;;;;;;14.83;70.31;99032.70;254860;1103;116524;-67
2021/07/31 00:36:14;;;;;;;14.30;7.95;;;;;;;14.81;70.37;99013.39;254850;1096;116742;-67
2021/07/31 00:41:18;;;;;;;9.25;8.45;;;;;;;14.69;70.29;99020.18;254173;1104;116160;-67
2021/07/31 00:46:21;;;;;;;17.38;9.33;;;;;;;14.55;70.67;99024.58;254401;1104;117051;-66
2021/07/31 00:51:24;;;;;;;8.48;7.78;;;;;;;14.40;71.09;99022.74;256017;1104;116922;-67
2021/07/31 00:56:28;;;;;;;10.83;8.58;;;;;;;14.40;71.36;99017.38;255512;1104;116932;-66
2021/07/31 01:01:30;;;;;;;9.88;8.85;;;;;;;14.38;71.41;99020.34;255595;1104;116091;-66
2021/07/31 01:06:33;;;;;;;13.10;9.85;;;;;;;14.38;71.31;99017.66;254469;1096;115481;-66
2021/07/31 01:11:36;;;;;;;9.73;7.35;;;;;;;14.35;71.16;99018.23;256133;1104;116132;-66
2021/07/31 01:16:39;;;;;;;10.68;8.60;;;;;;;14.32;71.92;99000.02;255572;1104;116016;-67
2021/07/31 01:21:44;;;;;;;10.18;7.68;;;;;;;14.31;71.35;99011.82;256328;1097;115121;-67
2021/07/31 01:26:49;;;;;;;13.33;8.83;;;;;;;14.26;71.47;99003.00;254274;1103;116161;-67
2021/07/31 01:31:53;;;;;;;9.07;8.17;;;;;;;14.33;71.97;99004.30;257288;1104;115110;-67
2021/07/31 01:36:56;;;;;;;13.83;8.63;;;;;;;14.39;72.02;98991.64;256177;1102;114957;-66
2021/07/31 01:42:00;;;;;;;12.48;7.98;;;;;;;14.35;71.35;98978.02;257199;1103;115265;-65
2021/07/31 01:47:05;;;;;;;11.57;7.83;;;;;;;14.24;71.51;98981.83;257170;1103;115045;-65
2021/07/31 01:52:09;;;;;;;13.58;8.70;;;;;;;14.14;72.09;98977.31;256006;1103;115390;-65
2021/07/31 01:57:14;;;;;;;9.80;8.78;;;;;;;14.09;72.27;98979.22;257139;1103;115091;-66
2021/07/31 02:02:17;;;;;;;11.37;7.03;;;;;;;14.08;71.76;98988.33;256699;1103;115059;-66
2021/07/31 02:07:21;;;;;;;10.63;7.95;;;;;;;14.14;72.23;98985.36;255487;1104;115134;-65
2021/07/31 02:12:25;;;;;;;9.05;8.20;;;;;;;14.19;72.64;98979.17;256267;1102;114993;-65
2021/07/31 02:17:28;;;;;;;14.98;8.13;;;;;;;14.09;72.01;98979.22;256901;1104;115951;-65
2021/07/31 02:22:31;;;;;;;13.10;7.97;;;;;;;14.03;72.05;98974.98;254800;1104;115407;-65
2021/07/31 02:27:35;;;;;;;10.23;8.90;;;;;;;13.98;72.54;98969.64;253854;1104;115434;-66
2021/07/31 02:32:38;;;;;;;11.63;8.85;;;;;;;14.02;72.94;98968.02;256146;1103;117625;-65
2021/07/31 02:37:42;;;;;;;9.08;8.18;;;;;;;13.98;72.75;98972.32;254444;1103;114628;-66
2021/07/31 02:42:44;;;;;;;12.40;7.53;;;;;;;13.88;72.57;98975.03;254395;1099;115276;-65
2021/07/31 02:47:47;;;;;;;12.70;8.70;;;;;;;13.79;73.21;98962.20;254907;1103;115334;-66
2021/07/31 02:52:50;;;;;;;8.00;6.00;;;;;;;13.72;73.16;98960.92;253810;1104;115319;-65
2021/07/31 02:57:54;;;;;;;9.47;7.80;;;;;;;13.68;73.04;98968.69;256218;1104;115263;-64
2021/07/31 03:02:56;;;;;;;9.28;8.33;;;;;;;13.69;73.72;98964.14;256846;1104;114652;-65
2021/07/31 03:07:59;;;;;;;10.00;7.80;;;;;;;13.70;73.42;98971.09;256546;1097;115032;-65
2021/07/31 03:13:02;;;;;;;12.30;7.70;;;;;;;13.78;73.94;98965.95;255347;1104;114661;-65
2021/07/31 03:18:06;;;;;;;11.25;8.25;;;;;;;13.82;73.63;98972.38;256881;1103;115456;-66
2021/07/31 03:23:10;;;;;;;10.60;7.70;;;;;;;13.80;73.55;98966.48;253962;1103;115610;-63
2021/07/31 03:28:15;;;;;;;8.30;7.15;;;;;;;13.85;73.59;98956.83;256710;1103;116823;-65
2021/07/31 03:33:18;;;;;;;28.03;8.20;;;;;;;13.89;73.46;98953.33;257286;1103;115748;-65
2021/07/31 03:38:21;;;;;;;15.53;8.28;;;;;;;14.01;73.73;98942.30;257337;1104;116574;-65
2021/07/31 03:43:25;;;;;;;9.50;8.37;;;;;;;14.11;73.47;98939.54;257466;1103;115466;-66
2021/07/31 03:48:29;;;;;;;14.15;7.83;;;;;;;14.16;73.28;98942.20;257061;1104;115621;-65
2021/07/31 03:53:32;;;;;;;7.77;7.03;;;;;;;14.21;73.85;98939.49;256436;1104;115961;-66
2021/07/31 03:58:36;;;;;;;9.93;7.63;;;;;;;14.49;74.26;98938.79;257037;1103;115484;-65
2021/07/31 04:03:39;;;;;;;10.83;8.60;;;;;;;14.66;74.04;98959.06;256762;1096;116210;-64
2021/07/31 04:08:42;;;;;;;14.98;8.95;;;;;;;14.91;73.44;98963.42;254416;1104;116199;-65
2021/07/31 04:13:45;;;;;;;15.43;8.20;;;;;;;15.03;73.70;98953.89;253987;1102;116073;-65
2021/07/31 04:18:48;;;;;;;8.85;7.78;;;;;;;15.50;73.74;98965.80;253954;1096;117398;-66
2021/07/31 04:23:52;;;;;;;12.38;7.78;;;;;;;15.65;73.66;98957.58;255473;1104;116644;-65
2021/07/31 04:28:56;;;;;;;10.68;8.73;;;;;;;16.09;73.39;98951.13;256084;1104;116075;-64
2021/07/31 04:33:59;;;;;;;11.75;10.38;;;;;;;16.40;73.31;98952.29;254155;1102;116390;-65
2021/07/31 04:39:03;;;;;;;13.43;9.73;;;;;;;16.57;73.34;98940.19;256479;1104;115632;-65
2021/07/31 04:44:08;;;;;;;10.60;7.83;;;;;;;16.71;73.33;98946.47;255245;1104;115179;-65
2021/07/31 04:49:12;;;;;;;9.05;6.93;;;;;;;17.02;73.36;98944.86;255886;1103;116994;-66
2021/07/31 04:54:15;;;;;;;7.80;6.57;;;;;;;17.47;72.85;98937.02;256071;1104;115818;-66
2021/07/31 04:59:18;;;;;;;9.70;7.20;;;;;;;17.88;72.43;98936.23;254764;1104;115765;-65
2021/07/31 05:04:22;;;;;;;8.53;7.50;;;;;;;18.16;72.42;98945.87;255727;1104;115967;-65
2021/07/31 05:09:25;;;;;;;7.25;6.50;;;;;;;18.36;72.08;98941.91;254752;1103;115834;-66
2021/07/31 05:14:28;;;;;;;8.93;7.27;;;;;;;18.52;71.81;98921.57;253968;1103;115576;-66
2021/07/31 05:19:35;;;;;;;9.26;6.40;;;;;;;19.62;70.12;98926.31;255536;1104;115464;-64
2021/07/31 05:24:42;;;;;;;7.53;6.03;;;;;;;23.04;66.15;98925.72;256687;1096;116203;-64
2021/07/31 05:29:46;;;;;;;8.90;6.20;;;;;;;26.97;61.58;98928.38;253822;1103;115914;-64
2021/07/31 05:34:55;;;;;;;9.55;6.33;;;;;;;30.19;57.68;98938.97;255816;1104;116791;-67
2021/07/31 05:40:01;;;;;;;6.78;5.48;;;;;;;31.88;54.94;98947.98;255802;1104;115430;-67
2021/07/31 05:45:05;;;;;;;7.65;5.58;;;;;;;31.57;52.27;98944.05;255245;1103;116361;-66
2021/07/31 05:50:10;;;;;;;8.63;5.43;;;;;;;31.87;49.93;98945.63;257157;1103;115582;-68
2021/07/31 05:55:15;;;;;;;7.47;5.23;;;;;;;31.90;48.77;98939.33;257323;1103;115826;-68
2021/07/31 06:00:17;;;;;;;6.03;5.40;;;;;;;33.73;45.76;98939.55;257152;1104;116065;-68
2021/07/31 06:05:20;;;;;;;4.28;3.70;;;;;;;35.47;43.78;98942.14;257009;1103;116002;-68
2021/07/31 06:10:23;;;;;;;4.55;4.13;;;;;;;35.11;42.11;98944.69;257099;1103;116232;-68
2021/07/31 06:15:27;;;;;;;3.33;3.13;;;;;;;34.19;41.60;98941.09;257125;1103;114930;-68
2021/07/31 06:20:30;;;;;;;5.33;4.90;;;;;;;33.32;40.77;98928.48;257272;1103;115622;-68
2021/07/31 06:25:33;;;;;;;40.93;5.83;;;;;;;32.26;41.78;98940.05;256175;1104;116388;-68
2021/07/31 06:30:36;;;;;;;7.55;4.45;;;;;;;31.73;42.01;98936.22;255050;1104;115843;-68
2021/07/31 06:35:39;;;;;;;9.35;6.13;;;;;;;31.11;42.30;98928.28;253757;1104;115857;-68
2021/07/31 06:40:43;;;;;;;10.18;6.18;;;;;;;30.47;43.22;98930.06;255941;1104;116477;-67
2021/07/31 06:45:47;;;;;;;8.15;6.00;;;;;;;30.12;43.81;98925.97;253938;1104;115709;-70
2021/07/31 06:50:50;;;;;;;10.68;8.18;;;;;;;29.71;44.85;98930.78;253976;1104;116074;-69
2021/07/31 06:55:53;;;;;;;17.88;8.40;;;;;;;29.54;45.14;98934.20;254257;1104;116765;-70
2021/07/31 07:00:56;;;;;;;9.70;6.10;;;;;;;29.43;44.80;98938.80;254732;1103;116599;-67
2021/07/31 07:06:04;;;;;;;11.93;5.53;;;;;;;29.22;45.04;98922.13;254519;1104;116116;-68
2021/07/31 07:11:13;;;;;;;7.73;6.63;;;;;;;29.14;46.08;98934.99;253774;1104;115962;-69
2021/07/31 07:16:16;;;;;;;6.27;5.27;;;;;;;28.92;46.06;98939.48;253692;1104;116414;-68
2021/07/31 07:21:19;;;;;;;8.95;5.88;;;;;;;28.62;46.79;98941.47;255466;1104;116404;-69
2021/07/31 07:26:22;;;;;;;8.55;6.98;;;;;;;28.45;46.17;98934.59;253590;1104;116441;-68
2021/07/31 07:31:24;;;;;;;6.67;5.67;;;;;;;28.36;46.68;98951.34;253886;1104;117067;-67
2021/07/31 07:36:27;;;;;;;12.93;6.98;;;;;;;28.20;46.09;98938.95;253915;1097;115769;-68
2021/07/31 07:41:30;;;;;;;9.93;6.77;;;;;;;27.93;46.55;98927.23;253784;1104;115991;-68
2021/07/31 07:46:34;;;;;;;7.65;6.98;;;;;;;27.90;47.47;98923.28;255775;1104;115285;-68
2021/07/31 07:51:39;;;;;;;10.95;6.05;;;;;;;28.17;48.02;98926.77;257241;1104;115598;-67
2021/07/31 07:56:42;;;;;;;9.85;6.10;;;;;;;28.00;46.93;98949.25;255952;1100;115206;-68
2021/07/31 08:01:45;;;;;;;12.40;7.43;;;;;;;27.65;47.31;98944.81;255160;1104;115254;-69
2021/07/31 08:06:48;;;;;;;9.55;7.30;;;;;;;27.14;47.09;98945.13;257138;1103;115040;-68
2021/07/31 08:11:52;;;;;;;7.70;7.00;;;;;;;26.73;47.89;98945.88;257031;1104;116292;-68
2021/07/31 08:16:54;;;;;;;10.20;7.35;;;;;;;26.47;48.80;98944.59;257099;1104;115865;-68
2021/07/31 08:21:58;;;;;;;13.78;7.58;;;;;;;26.32;48.72;98945.43;257325;1104;116616;-67
2021/07/31 08:27:02;;;;;;;8.75;7.43;;;;;;;26.11;49.19;98961.34;257298;1104;116444;-68
2021/07/31 08:32:05;;;;;;;9.57;6.97;;;;;;;25.87;49.16;98965.09;257280;1103;115556;-67
2021/07/31 08:37:09;;;;;;;9.87;7.97;;;;;;;25.61;49.10;98967.56;257459;1104;117035;-68
2021/07/31 08:42:14;;;;;;;9.03;8.23;;;;;;;25.37;49.58;98977.52;255634;1103;115625;-67
2021/07/31 08:47:19;;;;;;;10.23;8.98;;;;;;;25.23;49.79;98976.34;254071;1104;115572;-67
2021/07/31 08:52:23;;;;;;;;;;;;;;;25.36;50.33;98977.86;253903;1104;115689;-67
2021/07/31 08:57:27;;;;;;;13.38;6.58;;;;;;;25.58;50.97;98977.25;255338;1103;103001;-69
2021/07/31 09:02:44;;;;;;;7.90;7.30;;;;;;;25.46;50.65;98983.57;256128;1102;114946;-67
2021/07/31 09:07:58;;;;;;;13.03;7.63;;;;;;;25.31;50.90;98980.84;254216;1103;115515;-70
2021/07/31 09:13:04;;;;;;;8.05;7.35;;;;;;;25.32;51.34;98985.95;254804;1103;115895;-68
2021/07/31 09:18:29;;;;;;;10.45;8.03;;;;;;;25.28;51.52;98990.52;255200;1103;115254;-68
2021/07/31 09:23:45;;;;;;;18.13;11.30;;;;;;;25.24;51.59;98986.11;257112;1104;136385;-68
2021/07/31 09:29:02;;;;;;;9.75;7.50;;;;;;;25.17;52.34;98986.70;254884;1104;114794;-69
2021/07/31 09:34:08;;;;;;;8.17;7.33;;;;;;;25.10;52.14;98983.78;253694;1103;115745;-67
2021/07/31 09:39:12;;;;;;;7.90;7.10;;;;;;;24.93;52.06;98984.88;254969;1104;115731;-68
2021/07/31 09:44:17;;;;;;;8.08;7.28;;;;;;;24.85;51.83;98977.63;253880;1104;115161;-69
2021/07/31 09:49:22;;;;;;;13.63;7.70;;;;;;;24.92;52.38;98980.56;253957;1104;116113;-68
2021/07/31 09:54:25;;;;;;;;;;;;;;;25.08;52.60;98989.59;253808;1103;115724;-67
2021/07/31 09:59:31;;;;;;;7.45;6.45;;;;;;;25.26;52.46;98979.16;255492;1104;103008;-67
2021/07/31 10:04:34;;;;;;;7.95;7.20;;;;;;;25.46;52.29;98980.84;254452;1103;115299;-68
2021/07/31 10:09:49;;;;;;;8.33;6.80;;;;;;;25.80;52.57;98968.45;254457;1104;115126;-67
2021/07/31 10:14:54;;;;;;;7.90;6.58;;;;;;;26.07;52.37;98969.45;253717;1104;116481;-67
2021/07/31 10:19:58;;;;;;;15.50;6.73;;;;;;;26.36;52.20;98967.37;254203;1103;116518;-67
2021/07/31 10:25:01;;;;;;;9.45;6.60;;;;;;;26.71;52.24;98970.05;253950;1104;115877;-67
2021/07/31 10:30:23;;;;;;;5.90;5.40;;;;;;;26.97;50.74;98964.72;257341;1103;117371;-67
2021/07/31 10:35:33;;;;;;;6.10;4.73;;;;;;;27.24;50.01;98965.59;257121;1103;116918;-67
2021/07/31 10:40:40;;;;;;;5.70;5.20;;;;;;;27.70;49.82;98952.73;257097;1104;117485;-67
2021/07/31 10:45:44;;;;;;;5.17;4.67;;;;;;;27.73;48.77;98962.95;257166;1104;116566;-67
2021/07/31 10:50:47;;;;;;;6.33;5.70;;;;;;;27.62;48.33;98961.98;256436;1103;115703;-68
2021/07/31 10:55:56;;;;;;;18.60;17.40;;;;;;;27.46;47.90;98958.56;253699;1103;115761;-69
2021/07/31 11:01:22;;;;;;;10.83;8.85;;;;;;;27.27;47.61;98961.34;255373;1104;116208;-69
2021/07/31 11:06:26;;;;;;;5.53;5.03;;;;;;;27.34;48.15;98958.73;253780;1104;116520;-68
2021/07/31 11:11:34;;;;;;;11.80;4.83;;;;;;;27.48;48.14;98956.25;253619;1100;116139;-69
2021/07/31 11:16:38;;;;;;;4.80;4.37;;;;;;;27.56;47.88;98965.35;254244;1104;117049;-69
2021/07/31 11:21:49;;;;;;;6.15;5.20;;;;;;;27.53;47.24;98966.08;253575;1103;116269;-68
2021/07/31 11:26:57;;;;;;;5.45;4.75;;;;;;;27.39;47.50;98961.97;254862;1103;116085;-67
2021/07/31 11:32:14;;;;;;;9.30;5.55;;;;;;;27.55;47.66;98964.56;253875;1104;115962;-66
2021/07/31 11:37:17;;;;;;;14.30;5.10;;;;;;;28.09;47.63;98968.96;253875;1104;115810;-67
2021/07/31 11:42:22;;;;;;;5.05;4.65;;;;;;;28.49;47.33;98960.90;253934;1104;116317;-67
2021/07/31 11:47:29;;;;;;;9.67;6.50;;;;;;;28.69;46.67;98953.32;253834;1104;115838;-68
2021/07/31 11:52:37;;;;;;;6.15;5.23;;;;;;;28.99;46.66;98936.82;253539;1103;115965;-68
2021/07/31 11:57:40;;;;;;;18.78;7.10;;;;;;;29.18;46.14;98937.77;253634;1104;116605;-69
2021/07/31 12:02:44;;;;;;;9.35;5.75;;;;;;;29.20;45.92;98947.20;253823;1097;117659;-68
2021/07/31 12:07:54;;;;;;;9.18;5.80;;;;;;;28.91;45.76;98943.39;253812;1103;115690;-68
2021/07/31 12:13:08;;;;;;;10.25;6.05;;;;;;;28.77;45.43;98946.73;253772;1103;115317;-68
2021/07/31 12:18:12;;;;;;;6.85;4.93;;;;;;;28.99;44.63;98956.03;253700;1104;116074;-69
2021/07/31 12:23:15;;;;;;;4.55;4.23;;;;;;;29.08;43.56;98955.70;254992;1104;115238;-68
2021/07/31 12:28:40;;;;;;;4.30;3.90;;;;;;;29.29;44.01;98952.39;253701;1103;116268;-68
2021/07/31 12:33:43;;;;;;;;;;;;;;;29.03;43.00;98964.30;253793;1103;115542;-67
2021/07/31 12:38:47;;;;;;;5.53;4.50;;;;;;;28.65;42.68;98963.45;254399;1103;103107;-70
2021/07/31 12:43:51;;;;;;;5.78;5.23;;;;;;;28.24;42.98;98965.27;254945;1104;115756;-68
2021/07/31 12:48:55;;;;;;;4.45;4.10;;;;;;;28.16;43.35;98980.78;257230;1104;115830;-68
2021/07/31 12:53:58;;;;;;;4.58;4.03;;;;;;;27.98;43.45;98973.48;257250;1103;117225;-68
2021/07/31 12:59:00;;;;;;;4.77;4.37;;;;;;;27.83;43.32;98973.25;257237;1104;115523;-66
2021/07/31 13:04:04;;;;;;;5.60;5.10;;;;;;;27.67;43.95;98974.57;257092;1104;115470;-67
2021/07/31 13:09:10;;;;;;;6.28;5.08;;;;;;;27.74;44.19;98967.27;254400;1104;115408;-68
2021/07/31 13:14:14;;;;;;;4.70;4.30;;;;;;;28.38;44.45;98967.42;253819;1104;115485;-67
2021/07/31 13:19:19;;;;;;;4.85;3.98;;;;;;;28.69;44.27;98966.24;255051;1104;115332;-67
2021/07/31 13:24:22;;;;;;;7.35;5.18;;;;;;;28.76;43.95;98958.07;253760;1103;115244;-68
2021/07/31 13:29:25;;;;;;;6.88;5.35;;;;;;;28.99;44.01;98960.73;253640;1104;115845;-66
2021/07/31 13:34:31;;;;;;;5.28;4.48;;;;;;;28.97;43.36;98957.56;253853;1103;115213;-66
2021/07/31 13:39:42;;;;;;;5.63;3.67;;;;;;;28.94;43.57;98961.85;253825;1104;115446;-70
2021/07/31 13:44:48;;;;;;;21.80;5.78;;;;;;;28.92;42.86;98964.17;253783;1104;115899;-68
2021/07/31 13:49:53;;;;;;;5.28;4.05;;;;;;;28.97;43.24;98958.36;253910;1103;115651;-69
2021/07/31 13:54:56;;;;;;;13.80;5.13;;;;;;;28.85;42.49;98950.38;254036;1104;115371;-67
2021/07/31 14:00:04;;;;;;;5.03;3.73;;;;;;;28.76;42.71;98949.84;254005;1103;115270;-67
2021/07/31 14:05:09;;;;;;;5.10;4.55;;;;;;;28.71;42.72;98951.00;256273;1103;115277;-67
2021/07/31 14:10:14;;;;;;;13.65;5.00;;;;;;;28.60;42.85;98943.80;255343;1104;135017;-67
2021/07/31 14:15:18;;;;;;;8.58;3.65;;;;;;;28.52;42.21;98942.91;255043;1104;115237;-67
2021/07/31 14:20:23;;;;;;;4.40;4.10;;;;;;;28.53;42.42;98949.19;254619;1103;115372;-67
2021/07/31 14:25:27;;;;;;;5.63;4.40;;;;;;;28.42;42.02;98943.59;253965;1103;117064;-67
2021/07/31 14:30:31;;;;;;;9.03;4.53;;;;;;;28.40;42.02;98941.22;253658;1104;115057;-67
2021/07/31 14:35:34;;;;;;;4.00;3.78;;;;;;;28.37;42.34;98939.22;253833;1104;115745;-69
2021/07/31 14:40:37;;;;;;;8.15;3.98;;;;;;;28.38;42.40;98945.50;257148;1104;114731;-69
2021/07/31 14:45:43;;;;;;;428.03;373.93;;;;;;;28.21;42.33;98955.05;257147;1103;115110;-68
2021/07/31 14:50:47;;;;;;;20.25;18.15;;;;;;;27.99;42.42;98942.19;257059;1103;117119;-69
2021/07/31 14:55:50;;;;;;;9.33;7.63;;;;;;;27.91;42.52;98949.51;257102;1103;115745;-68
2021/07/31 15:00:54;;;;;;;15.45;11.28;;;;;;;27.82;42.78;98938.81;257260;1104;115475;-68
2021/07/31 15:05:57;;;;;;;7.23;6.10;;;;;;;27.72;42.95;98947.67;257081;1103;116079;-68
2021/07/31 15:11:01;;;;;;;9.30;6.18;;;;;;;27.35;42.91;98943.91;255873;1104;116627;-69
2021/07/31 15:16:07;;;;;;;52.03;47.23;;;;;;;27.26;43.81;98937.88;256802;1102;115369;-68
2021/07/31 15:21:15;;;;;;;8.70;7.90;;;;;;;27.46;43.77;98922.98;255399;1103;116108;-68
2021/07/31 15:26:18;;;;;;;21.15;18.93;;;;;;;27.44;43.73;98917.08;253788;1104;115433;-68
2021/07/31 15:31:21;;;;;;;22.05;16.70;;;;;;;27.33;43.76;98927.05;253850;1104;114873;-68
2021/07/31 15:36:25;;;;;;;28.63;25.88;;;;;;;27.20;43.67;98925.67;253849;1104;115644;-68
2021/07/31 15:41:29;;;;;;;20.68;18.25;;;;;;;27.13;43.57;98918.92;256637;1104;115718;-67
2021/07/31 15:46:33;;;;;;;24.48;19.63;;;;;;;27.03;43.41;98926.93;254766;1104;116070;-67
2021/07/31 15:51:36;;;;;;;15.70;13.35;;;;;;;26.94;43.62;98924.39;254552;1102;117488;-68
2021/07/31 15:56:41;;;;;;;35.25;31.95;;;;;;;26.91;44.06;98916.91;255347;1102;115513;-67
2021/07/31 16:01:46;;;;;;;24.05;19.78;;;;;;;26.80;44.05;98907.73;253876;1104;115638;-68
2021/07/31 16:06:50;;;;;;;85.20;60.25;;;;;;;26.66;44.04;98918.39;254969;1103;115630;-68
2021/07/31 16:11:54;;;;;;;50.73;40.73;;;;;;;26.53;44.39;98915.03;254202;1097;115865;-68
2021/07/31 16:16:59;;;;;;;9.83;8.75;;;;;;;26.47;44.53;98911.00;253846;1103;115830;-68
2021/07/31 16:22:09;;;;;;;5.08;4.28;;;;;;;26.42;44.77;98905.83;253915;1104;136742;-67
2021/07/31 16:27:13;;;;;;;5.20;4.80;;;;;;;26.29;44.79;98907.10;255858;1104;115110;-68
2021/07/31 16:32:16;;;;;;;5.68;5.13;;;;;;;26.21;44.99;98906.16;255085;1104;115471;-68
2021/07/31 16:37:21;;;;;;;9.60;5.27;;;;;;;26.10;45.50;98913.32;256153;1098;115519;-68
2021/07/31 16:42:24;;;;;;;4.93;4.43;;;;;;;26.01;45.67;98910.00;253926;1103;116461;-69
2021/07/31 16:47:27;;;;;;;6.05;5.45;;;;;;;25.89;46.10;98915.59;253819;1104;114662;-69
2021/07/31 16:52:32;;;;;;;5.20;4.05;;;;;;;25.79;45.68;98909.53;253827;1104;115468;-71
2021/07/31 16:57:38;;;;;;;33.60;29.97;;;;;;;25.65;46.07;98906.49;253745;1097;115473;-71
2021/07/31 17:02:41;;;;;;;14.67;12.73;;;;;;;25.53;46.14;98912.02;257278;1103;115732;-71
2021/07/31 17:07:44;;;;;;;16.23;14.67;;;;;;;25.41;46.12;98912.09;257378;1103;116123;-69
2021/07/31 17:12:47;;;;;;;41.08;28.75;;;;;;;25.36;46.35;98904.20;257178;1103;114884;-70
2021/07/31 17:17:51;;;;;;;15.58;12.70;;;;;;;25.29;47.37;98914.94;256933;1104;115631;-70
2021/07/31 17:22:54;;;;;;;11.23;9.40;;;;;;;25.17;47.27;98907.62;257129;1104;115169;-70
2021/07/31 17:28:03;;;;;;;9.70;7.13;;;;;;;25.05;47.40;98916.69;256001;1104;115168;-70
2021/07/31 17:33:07;;;;;;;7.98;5.15;;;;;;;24.93;47.62;98916.72;254227;1104;115151;-70
2021/07/31 17:38:11;;;;;;;5.00;4.53;;;;;;;24.71;47.98;98906.39;254013;1104;115105;-70
2021/07/31 17:43:15;;;;;;;28.65;19.98;;;;;;;24.51;48.92;98906.23;253784;1097;115869;-71
2021/07/31 17:48:18;;;;;;;41.80;24.53;;;;;;;24.27;49.32;98909.05;254254;1104;115203;-70
2021/07/31 17:53:22;;;;;;;171.25;102.78;;;;;;;24.05;49.63;98915.00;254235;1103;115550;-70
2021/07/31 17:58:25;;;;;;;40.55;25.75;;;;;;;23.88;50.44;98912.52;254946;1103;115976;-70
2021/07/31 18:03:29;;;;;;;53.75;33.18;;;;;;;23.69;51.06;98916.63;253808;1104;115221;-70
2021/07/31 18:08:32;;;;;;;157.05;102.85;;;;;;;23.51;51.50;98915.25;253694;1104;115982;-70
2021/07/31 18:13:36;;;;;;;35.98;29.05;;;;;;;23.38;52.20;98919.09;253931;1104;116191;-69
2021/07/31 18:18:41;;;;;;;10.33;7.53;;;;;;;23.19;52.52;98933.24;255326;1097;115469;-70
2021/07/31 18:23:44;;;;;;;7.78;6.98;;;;;;;23.00;52.30;98938.39;254691;1104;115453;-70
2021/07/31 18:28:48;;;;;;;6.55;5.58;;;;;;;22.81;53.48;98936.20;254083;1102;115331;-70
2021/07/31 18:33:54;;;;;;;4.68;4.35;;;;;;;22.61;54.14;98934.29;253709;1102;115328;-70
2021/07/31 18:38:57;;;;;;;5.80;5.13;;;;;;;22.26;54.66;98934.58;255407;1104;115284;-70
2021/07/31 18:44:03;;;;;;;5.10;4.60;;;;;;;21.98;55.46;98947.84;254018;1104;115342;-70
2021/07/31 18:49:06;;;;;;;5.78;4.93;;;;;;;21.82;56.34;98952.23;253754;1103;116343;-70
2021/07/31 18:54:10;;;;;;;5.20;4.80;;;;;;;21.68;56.55;98952.47;253744;1104;114239;-70
2021/07/31 18:59:13;;;;;;;6.80;5.97;;;;;;;21.56;57.10;98968.63;253932;1103;115090;-70
2021/07/31 19:04:16;;;;;;;15.88;6.98;;;;;;;21.46;57.43;98982.54;256159;1103;115919;-70
2021/07/31 19:09:19;;;;;;;7.40;5.55;;;;;;;21.32;57.68;98982.77;253850;1104;115659;-68
2021/07/31 19:14:21;;;;;;;10.10;6.45;;;;;;;21.21;57.70;98980.71;253566;1104;115498;-71
2021/07/31 19:19:24;;;;;;;9.95;6.90;;;;;;;21.09;57.79;98979.45;253777;1104;115227;-70
2021/07/31 19:24:26;;;;;;;7.68;6.05;;;;;;;21.04;58.42;99000.50;253741;1104;115248;-68
2021/07/31 19:29:29;;;;;;;7.88;5.78;;;;;;;20.92;58.72;99001.14;256925;1104;115614;-67
2021/07/31 19:34:34;;;;;;;7.58;5.93;;;;;;;20.78;58.50;99001.33;255475;1103;115497;-67
2021/07/31 19:39:37;;;;;;;8.00;5.95;;;;;;;20.58;58.91;99003.86;256966;1104;115905;-67
2021/07/31 19:44:40;;;;;;;10.73;7.07;;;;;;;20.36;59.52;98988.53;254198;1097;115011;-69
2021/07/31 19:49:43;;;;;;;8.35;6.55;;;;;;;20.24;60.21;98986.44;257243;1104;115349;-68
2021/07/31 19:54:46;;;;;;;7.70;6.90;;;;;;;20.13;60.46;98987.88;254266;1103;115479;-68
2021/07/31 19:59:49;;;;;;;8.60;7.25;;;;;;;19.95;60.43;98988.92;257082;1103;115013;-68
2021/07/31 20:04:52;;;;;;;12.60;6.30;;;;;;;19.77;60.83;98998.91;255486;1103;115976;-67
2021/07/31 20:09:54;;;;;;;8.60;6.75;;;;;;;19.66;61.15;99006.49;257059;1104;115724;-68
2021/07/31 20:14:58;;;;;;;9.45;7.33;;;;;;;19.57;60.97;99016.46;253816;1104;114469;-68
2021/07/31 20:20:02;;;;;;;14.13;8.03;;;;;;;19.41;61.23;99016.05;256469;1103;115494;-67
2021/07/31 20:25:06;;;;;;;8.73;7.30;;;;;;;19.24;61.46;99024.08;254229;1104;115950;-68
2021/07/31 20:30:10;;;;;;;10.43;8.00;;;;;;;19.08;61.86;99034.45;256212;1104;114958;-67
2021/07/31 20:35:14;;;;;;;8.78;6.55;;;;;;;18.91;62.25;99044.34;254833;1101;114577;-66
2021/07/31 20:40:18;;;;;;;9.63;7.57;;;;;;;18.78;62.60;99056.77;256672;1103;114872;-66
2021/07/31 20:45:22;;;;;;;8.33;7.27;;;;;;;18.72;63.07;99069.58;254823;1097;115293;-66
2021/07/31 20:50:25;;;;;;;19.45;8.58;;;;;;;18.60;63.11;99046.94;255622;1104;116489;-66
2021/07/31 20:55:31;;;;;;;7.18;6.25;;;;;;;18.59;63.47;99039.91;255206;1096;115907;-67
2021/07/31 21:00:35;;;;;;;9.43;7.08;;;;;;;18.40;63.45;99051.63;255022;1099;115412;-67
2021/07/31 21:05:39;;;;;;;8.48;6.53;;;;;;;18.19;63.75;99066.66;256924;1103;115070;-67
2021/07/31 21:10:42;;;;;;;9.70;7.43;;;;;;;18.06;64.39;99083.63;257078;1103;115065;-67
2021/07/31 21:15:45;;;;;;;8.63;7.80;;;;;;;17.96;64.18;99087.34;257101;1104;115579;-67
2021/07/31 21:20:48;;;;;;;9.63;7.23;;;;;;;17.79;64.68;99082.52;257111;1103;116888;-67
2021/07/31 21:25:52;;;;;;;8.75;7.08;;;;;;;17.64;65.38;99080.08;257405;1104;116663;-68
2021/07/31 21:30:55;;;;;;;9.90;7.00;;;;;;;17.58;65.14;99089.34;257328;1104;115645;-67
2021/07/31 21:36:04;;;;;;;8.23;7.13;;;;;;;17.59;65.50;99090.14;254312;1104;117263;-68
2021/07/31 21:41:08;;;;;;;8.13;7.33;;;;;;;17.55;65.41;99094.52;257102;1104;116481;-68
2021/07/31 21:46:11;;;;;;;11.93;8.20;;;;;;;17.35;65.49;99106.45;255132;1104;117012;-66
2021/07/31 21:51:15;;;;;;;7.78;6.68;;;;;;;17.18;65.94;99105.07;253982;1103;116362;-67
2021/07/31 21:56:18;;;;;;;8.50;7.75;;;;;;;17.02;66.29;99114.48;255777;1103;116691;-68
2021/07/31 22:01:21;;;;;;;9.47;8.67;;;;;;;16.89;66.69;99115.20;256713;1104;116296;-68
2021/07/31 22:06:25;;;;;;;14.07;9.43;;;;;;;16.86;66.53;99118.48;254170;1104;115431;-67
2021/07/31 22:11:28;;;;;;;11.33;8.25;;;;;;;16.82;67.14;99130.91;255921;1103;116260;-68
2021/07/31 22:16:32;;;;;;;13.73;9.00;;;;;;;16.75;67.31;99133.98;255629;1097;115798;-68
2021/07/31 22:21:39;;;;;;;7.73;6.85;;;;;;;16.73;67.59;99129.98;255595;1099;115654;-68
2021/07/31 22:26:43;;;;;;;11.10;8.03;;;;;;;16.67;67.55;99126.55;256183;1103;115243;-68
2021/07/31 22:31:46;;;;;;;8.38;7.53;;;;;;;16.58;67.40;99119.38;255001;1103;115874;-68
2021/07/31 22:36:51;;;;;;;8.98;7.70;;;;;;;16.43;67.60;99123.07;254937;1104;115901;-68
2021/07/31 22:41:55;;;;;;;8.43;6.95;;;;;;;16.25;67.98;99121.12;255563;1103;115801;-67
2021/07/31 22:46:59;;;;;;;8.53;7.63;;;;;;;16.12;67.79;99125.31;254138;1104;116142;-67
2021/07/31 22:52:03;;;;;;;9.15;8.20;;;;;;;16.00;68.30;99123.00;255157;1104;116291;-66
2021/07/31 22:57:07;;;;;;;10.95;7.78;;;;;;;15.99;68.73;99123.28;254355;1104;115993;-66
2021/07/31 23:02:10;;;;;;;10.67;7.93;;;;;;;15.94;68.42;99126.02;255061;1098;116426;-66
2021/07/31 23:07:13;;;;;;;12.17;8.27;;;;;;;15.83;68.83;99118.08;255846;1104;115797;-67
2021/07/31 23:12:16;;;;;;;9.03;8.17;;;;;;;15.75;69.10;99125.95;254038;1104;116112;-67